Time;durP1;ratioP1;P1;durP2;ratioP2;P2;SDS_P1;SDS_P2;PMS_P1;PMS_P2;Temp;Humidity;BMP_temperature;BMP_pressure;BME280_temperature;BME280_humidity;BME280_pressure;Samples;Min_cycle;Max_cycle;Signal;HPM_P1;HPM_P2
2022/09/09 00:05:32;;;;;;;0.00;0.00;;;;;;;20.86;70.83;100188.47;18437191;32;20105;-55
2022/09/09 00:15:40;;;;;;;0.05;0.05;;;;;;;20.68;71.40;100185.75;18421729;32;20097;-55
2022/09/09 00:25:47;;;;;;;0.00;0.00;;;;;;;20.58;71.71;100174.72;18421571;32;20451;-55
2022/09/09 00:35:58;;;;;;;0.10;0.10;;;;;;;20.60;71.62;100194.06;18434932;32;20100;-55
2022/09/09 00:46:28;;;;;;;0.10;0.10;;;;;;;20.15;72.44;100176.72;18434835;32;20085;-55
2022/09/09 00:56:42;;;;;;;0.35;0.22;;;;;;;20.29;72.13;100195.47;18434577;32;20096;-55
2022/09/09 01:06:52;;;;;;;0.00;0.00;;;;;;;20.29;71.54;100187.53;18434946;32;20485;-55
2022/09/09 01:17:00;;;;;;;0.20;0.20;;;;;;;19.81;73.55;100197.63;18433634;32;20389;-56
2022/09/09 01:27:06;;;;;;;0.20;0.20;;;;;;;19.97;72.30;100192.53;18434486;32;20114;-55
2022/09/09 01:37:11;;;;;;;0.10;0.10;;;;;;;20.04;72.17;100204.56;18433452;32;20108;-55
2022/09/09 01:47:17;;;;;;;0.20;0.20;;;;;;;19.60;73.35;100215.28;18432192;32;20089;-55
2022/09/09 01:57:24;;;;;;;0.20;0.20;;;;;;;20.08;71.63;100216.75;18433115;32;20138;-55
2022/09/09 02:07:36;;;;;;;0.10;0.10;;;;;;;19.99;72.11;100226.91;18432505;32;20089;-55
2022/09/09 02:17:39;;;;;;;0.30;0.30;;;;;;;19.97;72.04;100224.31;18405214;32;20133;-55
2022/09/09 02:27:46;;;;;;;0.10;0.10;;;;;;;19.92;71.61;100223.63;18474776;32;20100;-55
2022/09/09 02:37:51;;;;;;;0.10;0.10;;;;;;;19.71;72.12;100236.03;18496295;32;20084;-55
2022/09/09 02:48:00;;;;;;;0.10;0.10;;;;;;;19.35;73.03;100230.44;18495591;32;20107;-55
2022/09/09 02:58:05;;;;;;;0.20;0.20;;;;;;;19.70;71.78;100235.16;18495027;32;20133;-55
2022/09/09 03:08:10;;;;;;;0.10;0.10;;;;;;;19.50;72.44;100231.56;18494875;32;20376;-55
2022/09/09 03:18:13;;;;;;;0.10;0.10;;;;;;;19.58;71.84;100222.44;18494066;32;20144;-55
2022/09/09 03:28:18;;;;;;;0.10;0.10;;;;;;;19.29;72.19;100213.94;18480033;32;20357;-55
2022/09/09 03:38:21;;;;;;;0.10;0.10;;;;;;;19.33;71.63;100228.75;18451313;32;20171;-55
2022/09/09 03:48:27;;;;;;;0.10;0.10;;;;;;;18.60;74.38;100234.25;18427475;32;20105;-55
2022/09/09 03:58:31;;;;;;;0.10;0.10;;;;;;;18.78;73.27;100233.56;18427347;32;20085;-55
2022/09/09 04:08:37;;;;;;;0.17;0.17;;;;;;;18.64;74.03;100244.66;18428334;32;20158;-55
2022/09/09 04:18:40;;;;;;;0.10;0.10;;;;;;;18.82;73.14;100255.44;18435545;32;20105;-55
2022/09/09 04:28:45;;;;;;;0.10;0.10;;;;;;;18.57;73.66;100245.81;18451200;32;20141;-55
2022/09/09 04:38:49;;;;;;;0.10;0.10;;;;;;;17.45;80.78;100252.34;18435228;32;20119;-55
2022/09/09 04:48:53;;;;;;;0.17;0.17;;;;;;;18.54;74.54;100265.31;18468792;32;20088;-56
2022/09/09 04:58:57;;;;;;;0.10;0.10;;;;;;;18.97;72.97;100265.44;18433720;32;20141;-55
2022/09/09 05:09:01;;;;;;;0.25;0.25;;;;;;;19.11;72.65;100272.88;18491061;32;20096;-55
2022/09/09 05:19:04;;;;;;;1.37;0.40;;;;;;;19.24;72.75;100259.12;18440083;32;20097;-56
2022/09/09 05:29:09;;;;;;;0.10;0.10;;;;;;;19.45;72.66;100283.84;18440296;32;20138;-55
2022/09/09 05:39:12;;;;;;;0.13;0.13;;;;;;;19.53;73.11;100287.03;18477827;32;20154;-55
2022/09/09 05:49:17;;;;;;;0.20;0.20;;;;;;;19.88;72.44;100283.84;18474437;32;20093;-56
2022/09/09 05:59:20;;;;;;;0.10;0.10;;;;;;;20.54;71.93;100275.69;18490808;32;20092;-55
2022/09/09 06:09:25;;;;;;;0.20;0.20;;;;;;;20.97;70.68;100279.00;18498205;32;20089;-55
2022/09/09 06:19:28;;;;;;;0.25;0.20;;;;;;;21.97;65.92;100269.69;18448697;32;20120;-56
2022/09/09 06:29:34;;;;;;;0.00;0.00;;;;;;;22.72;65.64;100274.59;18437458;32;20089;-56
2022/09/09 06:39:37;;;;;;;0.47;0.28;;;;;;;22.55;64.33;100283.50;18462868;32;20115;-56
2022/09/09 06:49:43;;;;;;;0.00;0.00;;;;;;;22.51;63.62;100300.56;18495310;32;20461;-56
2022/09/09 06:59:50;;;;;;;0.52;0.40;;;;;;;22.61;63.53;100294.75;18495045;32;20650;-55
2022/09/09 07:09:55;;;;;;;0.40;0.13;;;;;;;23.53;61.86;100298.53;18436573;32;20093;-56
2022/09/09 07:19:58;;;;;;;0.10;0.10;;;;;;;23.30;61.35;100306.03;18426090;32;20529;-55
2022/09/09 07:30:04;;;;;;;0.10;0.10;;;;;;;22.68;63.68;100317.44;18424354;32;20093;-55
2022/09/09 07:40:08;;;;;;;0.10;0.10;;;;;;;22.89;62.20;100306.53;18424705;32;20114;-56
2022/09/09 07:50:12;;;;;;;0.00;0.00;;;;;;;23.60;60.20;100307.84;18427681;32;20128;-56
2022/09/09 08:00:18;;;;;;;0.10;0.10;;;;;;;24.12;58.70;100313.75;18432318;32;20114;-56
2022/09/09 08:10:25;;;;;;;0.10;0.10;;;;;;;24.05;57.33;100318.59;18434178;32;20111;-55
2022/09/09 08:20:28;;;;;;;0.00;0.00;;;;;;;24.57;55.69;100320.81;18446305;32;20158;-55
2022/09/09 08:30:32;;;;;;;0.22;0.15;;;;;;;24.03;56.66;100317.75;18434646;32;20093;-56
2022/09/09 08:40:38;;;;;;;0.10;0.10;;;;;;;24.77;56.54;100309.72;18433822;32;20105;-55
2022/09/09 08:50:44;;;;;;;0.10;0.10;;;;;;;23.63;55.52;100299.69;18487477;32;20089;-55
2022/09/09 09:01:11;;;;;;;0.10;0.10;;;;;;;24.75;54.61;100292.94;18498657;32;20081;-55
2022/09/09 09:11:15;;;;;;;0.03;0.03;;;;;;;25.53;52.69;100311.19;18498683;32;20143;-55
2022/09/09 09:21:24;;;;;;;0.28;0.28;;;;;;;26.01;51.48;100311.47;18497886;32;20141;-56
2022/09/09 09:31:28;;;;;;;0.00;0.00;;;;;;;26.00;48.59;100316.97;18484707;32;20128;-56
2022/09/09 09:41:34;;;;;;;0.10;0.10;;;;;;;26.30;46.89;100302.44;18391440;32;20143;-56
2022/09/09 09:51:39;;;;;;;0.00;0.00;;;;;;;26.62;46.33;100285.06;18469490;32;20110;-56
2022/09/09 10:01:43;;;;;;;0.00;0.00;;;;;;;27.61;45.75;100272.47;18432902;32;20092;-56
2022/09/09 10:11:54;;;;;;;0.00;0.00;;;;;;;27.27;45.12;100280.34;18449380;32;20097;-56
2022/09/09 10:22:08;;;;;;;0.10;0.10;;;;;;;25.77;46.63;100289.97;18475464;32;20138;-56
2022/09/09 10:32:28;;;;;;;0.08;0.08;;;;;;;27.19;44.91;100283.59;18463723;32;20096;-56
2022/09/09 10:42:34;;;;;;;0.00;0.00;;;;;;;26.33;44.06;100279.97;18476902;32;20462;-56
2022/09/09 10:52:47;;;;;;;0.00;0.00;;;;;;;27.22;42.53;100272.66;18402152;32;20100;-55
2022/09/09 11:02:54;;;;;;;0.20;0.20;;;;;;;27.23;43.26;100273.50;18398433;32;20124;-56
2022/09/09 11:13:05;;;;;;;0.00;0.00;;;;;;;27.56;41.49;100269.28;18422291;32;20404;-57
2022/09/09 11:23:10;;;;;;;;;;;;;;;28.54;41.13;100272.47;18425736;32;20120;-57
2022/09/09 11:33:43;;;;;;;0.03;0.03;;;;;;;27.45;38.22;100264.72;18430419;32;20026;-56
2022/09/09 11:43:48;;;;;;;0.30;0.20;;;;;;;28.96;37.70;100246.78;18443119;32;20069;-57
2022/09/09 11:53:54;;;;;;;0.37;0.20;;;;;;;28.00;37.39;100252.53;18432414;32;20145;-56
2022/09/09 12:04:29;;;;;;;0.47;0.20;;;;;;;28.45;37.88;100235.59;18451672;32;20092;-57
2022/09/09 12:14:44;;;;;;;0.00;0.00;;;;;;;28.33;38.84;100232.09;18393954;32;20142;-56
2022/09/09 12:24:53;;;;;;;0.00;0.00;;;;;;;28.85;38.95;100224.34;18430460;32;20119;-57
2022/09/09 12:35:01;;;;;;;0.50;0.40;;;;;;;28.98;41.39;100229.56;18433765;32;20135;-57
2022/09/09 12:45:16;;;;;;;0.10;0.10;;;;;;;28.87;36.92;100222.38;18430131;32;20136;-56
2022/09/09 12:55:24;;;;;;;0.00;0.00;;;;;;;29.05;37.20;100206.56;18405909;32;20109;-57
2022/09/09 13:05:29;;;;;;;0.10;0.10;;;;;;;29.55;33.75;100197.06;18487071;32;20096;-57
2022/09/09 13:15:34;;;;;;;0.00;0.00;;;;;;;29.00;35.02;100191.81;18465611;32;20101;-57
2022/09/09 13:25:38;;;;;;;0.10;0.10;;;;;;;29.51;34.08;100163.34;18446939;32;20118;-57
2022/09/09 13:35:50;;;;;;;0.10;0.10;;;;;;;30.08;32.87;100156.72;18472550;32;20101;-57
2022/09/09 13:45:56;;;;;;;0.00;0.00;;;;;;;28.60;34.24;100147.59;18442315;32;20096;-57
2022/09/09 13:56:01;;;;;;;0.13;0.13;;;;;;;28.43;34.24;100159.72;18489306;32;20140;-57
2022/09/09 14:06:04;;;;;;;0.10;0.10;;;;;;;28.28;33.57;100164.53;18467062;32;20093;-57
2022/09/09 14:16:09;;;;;;;0.52;0.10;;;;;;;28.25;35.64;100146.81;18417579;32;20097;-57
2022/09/09 14:26:13;;;;;;;0.98;0.20;;;;;;;28.99;36.18;100126.50;18432174;32;20097;-57
2022/09/09 14:36:19;;;;;;;0.00;0.00;;;;;;;28.84;32.54;100122.41;18405946;32;20163;-57
2022/09/09 14:46:23;;;;;;;0.00;0.00;;;;;;;28.37;36.06;100110.09;18413345;32;20136;-57
2022/09/09 14:56:29;;;;;;;0.10;0.10;;;;;;;28.76;36.84;100114.97;18406706;32;20085;-57
2022/09/09 15:06:34;;;;;;;0.00;0.00;;;;;;;28.48;38.61;100104.69;18430544;32;20088;-57
2022/09/09 15:16:39;;;;;;;0.00;0.00;;;;;;;28.47;38.14;100113.72;18425641;32;20709;-57
2022/09/09 15:26:43;;;;;;;0.00;0.00;;;;;;;28.00;40.27;100123.78;18401767;32;158243;-57
2022/09/09 15:36:47;;;;;;;0.00;0.00;;;;;;;27.89;40.11;100124.66;18390101;32;20093;-57
2022/09/09 15:46:53;;;;;;;0.00;0.00;;;;;;;28.00;41.27;100132.69;18475026;32;20096;-57
2022/09/09 15:56:59;;;;;;;0.00;0.00;;;;;;;27.85;40.90;100118.69;18485108;32;20092;-55
2022/09/09 16:07:09;;;;;;;0.20;0.20;;;;;;;27.71;40.65;100111.75;18442006;32;20096;-55
2022/09/09 16:17:14;;;;;;;0.00;0.00;;;;;;;27.48;42.26;100129.63;18455253;32;20101;-55
2022/09/09 16:27:17;;;;;;;0.10;0.00;;;;;;;27.20;45.87;100124.56;18498684;32;20104;-55
2022/09/09 16:37:21;;;;;;;0.17;0.17;;;;;;;26.98;49.51;100136.03;18417250;32;20105;-56
2022/09/09 16:47:25;;;;;;;0.00;0.00;;;;;;;26.54;52.46;100133.03;18405449;32;20154;-55
2022/09/09 16:57:30;;;;;;;0.00;0.00;;;;;;;26.24;53.83;100135.19;18470541;32;20108;-55
2022/09/09 17:07:33;;;;;;;0.20;0.20;;;;;;;25.86;55.22;100142.28;18443653;32;20100;-56
2022/09/09 17:17:37;;;;;;;0.00;0.00;;;;;;;25.58;55.70;100146.06;18419689;32;20169;-55
2022/09/09 17:27:41;;;;;;;0.90;0.40;;;;;;;25.21;57.40;100142.25;18434905;32;20105;-55
2022/09/09 17:37:45;;;;;;;0.10;0.10;;;;;;;24.86;57.99;100149.97;18410548;32;20159;-55
2022/09/09 17:47:49;;;;;;;0.32;0.32;;;;;;;24.52;59.83;100161.84;18426529;32;20092;-55
2022/09/09 17:57:54;;;;;;;0.10;0.10;;;;;;;24.19;60.08;100176.41;18417885;32;20123;-55
2022/09/09 18:07:57;;;;;;;0.10;0.10;;;;;;;23.80;60.57;100167.22;18432735;32;20077;-55
2022/09/09 18:18:05;;;;;;;0.10;0.10;;;;;;;23.58;61.70;100178.38;18431513;32;20089;-55
2022/09/09 18:28:10;;;;;;;0.43;0.28;;;;;;;23.32;61.95;100186.13;18416685;32;20097;-55
2022/09/09 18:38:16;;;;;;;0.00;0.00;;;;;;;23.22;62.59;100181.28;18432687;32;20096;-55
2022/09/09 18:48:19;;;;;;;0.05;0.05;;;;;;;23.27;63.02;100181.88;18431289;32;20100;-55
2022/09/09 18:58:24;;;;;;;0.20;0.20;;;;;;;23.28;63.34;100185.44;18430519;32;20118;-55
2022/09/09 19:08:27;;;;;;;0.10;0.10;;;;;;;22.23;66.95;100203.66;18430647;32;20190;-55
2022/09/09 19:18:32;;;;;;;0.20;0.20;;;;;;;22.80;64.51;100199.66;18415130;32;20118;-55
2022/09/09 19:28:35;;;;;;;0.30;0.30;;;;;;;22.81;63.83;100208.50;18430418;32;20093;-55
2022/09/09 19:38:40;;;;;;;0.10;0.10;;;;;;;22.84;63.00;100195.03;18426297;32;20115;-55
2022/09/09 19:48:44;;;;;;;0.22;0.22;;;;;;;22.80;62.70;100189.03;18423107;32;20112;-55
2022/09/09 19:58:49;;;;;;;0.28;0.28;;;;;;;22.78;63.18;100196.25;18434925;32;20088;-55
2022/09/09 20:08:53;;;;;;;0.10;0.10;;;;;;;22.69;63.55;100200.25;18435991;32;20111;-56
2022/09/09 20:19:01;;;;;;;0.65;0.55;;;;;;;22.81;63.41;100196.06;18436630;32;20089;-55
2022/09/09 20:29:06;;;;;;;0.10;0.10;;;;;;;23.00;63.33;100201.19;18422242;32;20096;-55
2022/09/09 20:39:13;;;;;;;0.55;0.55;;;;;;;22.94;64.34;100213.97;18435404;32;20092;-55
2022/09/09 20:49:18;;;;;;;0.65;0.30;;;;;;;22.97;64.64;100227.13;18435456;32;20097;-55
2022/09/09 20:59:24;;;;;;;0.65;0.43;;;;;;;22.68;66.94;100216.34;18434602;32;20097;-55
2022/09/09 21:09:28;;;;;;;0.25;0.25;;;;;;;23.00;65.82;100210.97;18434497;32;20160;-55
2022/09/09 21:19:32;;;;;;;0.10;0.10;;;;;;;23.19;65.31;100194.81;18434119;32;20453;-55
2022/09/09 21:29:35;;;;;;;0.65;0.57;;;;;;;23.08;66.40;100184.78;18422782;32;20111;-55
2022/09/09 21:39:40;;;;;;;0.13;0.13;;;;;;;23.28;65.96;100193.41;18434735;32;20085;-55
2022/09/09 21:49:43;;;;;;;0.35;0.35;;;;;;;23.07;66.95;100191.03;18402391;32;20093;-55
2022/09/09 21:59:48;;;;;;;0.30;0.28;;;;;;;22.99;67.62;100182.63;18368989;32;20093;-55
2022/09/09 22:09:51;;;;;;;0.30;0.30;;;;;;;22.89;67.97;100184.13;18368721;32;20170;-55
2022/09/09 22:19:55;;;;;;;0.22;0.22;;;;;;;22.92;67.86;100178.63;18368059;32;20366;-55
2022/09/09 22:29:58;;;;;;;0.20;0.20;;;;;;;22.73;68.58;100172.56;18368209;32;20124;-55
2022/09/09 22:40:03;;;;;;;1.05;0.35;;;;;;;22.58;69.29;100176.94;18367967;32;20444;-55
2022/09/09 22:50:08;;;;;;;0.17;0.17;;;;;;;22.49;69.42;100172.16;18353409;32;20097;-55
2022/09/09 23:00:14;;;;;;;0.40;0.20;;;;;;;22.51;69.19;100158.75;18366885;32;20184;-55
2022/09/09 23:10:17;;;;;;;0.90;0.65;;;;;;;22.43;69.67;100167.13;18366659;32;20128;-55
2022/09/09 23:20:25;;;;;;;0.73;0.73;;;;;;;22.41;69.46;100153.06;18365372;32;20111;-55
2022/09/09 23:53:07;;;;;;;0.70;0.70;;;;;;;22.95;68.87;100154.47;18736491;31;156879;-57
